sensor_id;sensor_type;location;lat;lon;timestamp;pressure;altitude;pressure_sealevel;temperature;humidity
27643;BME280;15053;48.618;10.024;2023-04-21T00:01:10;93927.22;;;5.66;99.54
27643;BME280;15053;48.618;10.024;2023-04-21T00:03:37;93922.34;;;5.65;99.43
27643;BME280;15053;48.618;10.024;2023-04-21T00:06:04;93924.16;;;5.59;99.65
27643;BME280;15053;48.618;10.024;2023-04-21T00:08:35;93928.28;;;5.60;99.82
27643;BME280;15053;48.618;10.024;2023-04-21T00:11:08;93926.47;;;5.61;99.92
27643;BME280;15053;48.618;10.024;2023-04-21T00:13:35;93908.38;;;5.61;100.00
27643;BME280;15053;48.618;10.024;2023-04-21T00:16:02;93906.34;;;5.63;99.92
27643;BME280;15053;48.618;10.024;2023-04-21T00:18:28;93913.03;;;5.64;99.76
27643;BME280;15053;48.618;10.024;2023-04-21T00:20:55;93902.94;;;5.67;99.76
27643;BME280;15053;48.618;10.024;2023-04-21T00:23:21;93890.56;;;5.64;100.00
27643;BME280;15053;48.618;10.024;2023-04-21T00:25:48;93890.31;;;5.66;100.00
27643;BME280;15053;48.618;10.024;2023-04-21T00:28:14;93889.50;;;5.70;100.00
27643;BME280;15053;48.618;10.024;2023-04-21T00:30:41;93880.44;;;5.73;100.00
27643;BME280;15053;48.618;10.024;2023-04-21T00:33:07;93881.72;;;5.75;100.00
27643;BME280;15053;48.618;10.024;2023-04-21T00:35:34;93873.69;;;5.77;100.00
27643;BME280;15053;48.618;10.024;2023-04-21T00:38:00;93865.16;;;5.81;100.00
27643;BME280;15053;48.618;10.024;2023-04-21T00:40:28;93862.31;;;5.83;100.00
27643;BME280;15053;48.618;10.024;2023-04-21T00:42:54;93856.88;;;5.89;100.00
27643;BME280;15053;48.618;10.024;2023-04-21T00:45:21;93854.56;;;5.93;100.00
27643;BME280;15053;48.618;10.024;2023-04-21T00:47:48;93862.53;;;5.97;100.00
27643;BME280;15053;48.618;10.024;2023-04-21T00:50:16;93853.25;;;5.96;100.00
27643;BME280;15053;48.618;10.024;2023-04-21T00:52:43;93858.38;;;6.01;100.00
27643;BME280;15053;48.618;10.024;2023-04-21T00:55:13;93843.13;;;6.04;100.00
27643;BME280;15053;48.618;10.024;2023-04-21T00:57:40;93843.31;;;6.08;100.00
27643;BME280;15053;48.618;10.024;2023-04-21T01:00:07;93835.03;;;6.11;100.00
27643;BME280;15053;48.618;10.024;2023-04-21T01:02:37;93840.69;;;6.13;100.00
27643;BME280;15053;48.618;10.024;2023-04-21T01:05:05;93835.78;;;6.16;100.00
27643;BME280;15053;48.618;10.024;2023-04-21T01:07:36;93843.28;;;6.18;100.00
27643;BME280;15053;48.618;10.024;2023-04-21T01:10:03;93839.63;;;6.19;100.00
27643;BME280;15053;48.618;10.024;2023-04-21T01:12:30;93838.09;;;6.18;100.00
27643;BME280;15053;48.618;10.024;2023-04-21T01:14:57;93843.28;;;6.18;100.00
27643;BME280;15053;48.618;10.024;2023-04-21T01:17:24;93837.34;;;6.17;99.37
27643;BME280;15053;48.618;10.024;2023-04-21T01:19:52;93833.97;;;6.17;100.00
27643;BME280;15053;48.618;10.024;2023-04-21T01:22:21;93838.84;;;6.18;99.28
27643;BME280;15053;48.618;10.024;2023-04-21T01:24:48;93841.44;;;6.18;98.64
27643;BME280;15053;48.618;10.024;2023-04-21T01:27:17;93836.03;;;6.20;99.30
27643;BME280;15053;48.618;10.024;2023-04-21T01:29:48;93832.94;;;6.18;99.16
27643;BME280;15053;48.618;10.024;2023-04-21T01:32:18;93832.38;;;6.21;99.41
27643;BME280;15053;48.618;10.024;2023-04-21T01:34:45;93836.56;;;6.17;99.05
27643;BME280;15053;48.618;10.024;2023-04-21T01:37:15;93841.19;;;6.20;98.95
27643;BME280;15053;48.618;10.024;2023-04-21T01:39:45;93827.19;;;6.21;99.70
27643;BME280;15053;48.618;10.024;2023-04-21T01:42:12;93822.81;;;6.21;98.35
27643;BME280;15053;48.618;10.024;2023-04-21T01:44:40;93809.09;;;6.21;99.63
27643;BME280;15053;48.618;10.024;2023-04-21T01:47:07;93815.56;;;6.23;99.32
27643;BME280;15053;48.618;10.024;2023-04-21T01:49:33;93805.97;;;6.24;99.40
27643;BME280;15053;48.618;10.024;2023-04-21T01:52:00;93810.13;;;6.25;98.68
27643;BME280;15053;48.618;10.024;2023-04-21T01:54:26;93807.53;;;6.25;98.42
27643;BME280;15053;48.618;10.024;2023-04-21T01:56:53;93816.84;;;6.26;98.93
27643;BME280;15053;48.618;10.024;2023-04-21T01:59:20;93806.50;;;6.26;98.72
27643;BME280;15053;48.618;10.024;2023-04-21T02:01:47;93808.31;;;6.25;99.05
27643;BME280;15053;48.618;10.024;2023-04-21T02:04:13;93812.72;;;6.25;98.35
27643;BME280;15053;48.618;10.024;2023-04-21T02:06:40;93801.63;;;6.19;97.85
27643;BME280;15053;48.618;10.024;2023-04-21T02:09:07;93807.28;;;6.21;98.97
27643;BME280;15053;48.618;10.024;2023-04-21T02:11:33;93796.97;;;6.21;98.38
27643;BME280;15053;48.618;10.024;2023-04-21T02:14:00;93790.03;;;6.17;98.58
27643;BME280;15053;48.618;10.024;2023-04-21T02:16:26;93791.34;;;6.14;98.09
27643;BME280;15053;48.618;10.024;2023-04-21T02:18:54;93779.72;;;6.12;98.12
27643;BME280;15053;48.618;10.024;2023-04-21T02:21:25;93778.22;;;6.06;97.34
27643;BME280;15053;48.618;10.024;2023-04-21T02:23:52;93778.25;;;6.01;97.74
27643;BME280;15053;48.618;10.024;2023-04-21T02:26:19;93799.44;;;6.03;97.82
27643;BME280;15053;48.618;10.024;2023-04-21T02:28:46;93804.34;;;5.99;97.79
27643;BME280;15053;48.618;10.024;2023-04-21T02:31:14;93814.69;;;5.99;97.57
27643;BME280;15053;48.618;10.024;2023-04-21T02:33:40;93813.41;;;5.97;98.40
27643;BME280;15053;48.618;10.024;2023-04-21T02:36:10;93819.09;;;5.99;97.71
27643;BME280;15053;48.618;10.024;2023-04-21T02:38:36;93811.34;;;5.99;97.93
27643;BME280;15053;48.618;10.024;2023-04-21T02:41:03;93802.81;;;5.98;97.59
27643;BME280;15053;48.618;10.024;2023-04-21T02:43:29;93810.06;;;5.96;98.11
27643;BME280;15053;48.618;10.024;2023-04-21T02:45:56;93818.09;;;5.94;97.84
27643;BME280;15053;48.618;10.024;2023-04-21T02:48:22;93807.28;;;5.87;97.65
27643;BME280;15053;48.618;10.024;2023-04-21T02:50:51;93804.69;;;5.82;97.18
27643;BME280;15053;48.618;10.024;2023-04-21T02:53:19;93800.09;;;5.79;97.38
27643;BME280;15053;48.618;10.024;2023-04-21T02:55:46;93807.31;;;5.77;98.01
27643;BME280;15053;48.618;10.024;2023-04-21T02:58:12;93808.88;;;5.78;98.26
27643;BME280;15053;48.618;10.024;2023-04-21T03:00:40;93809.63;;;5.79;98.09
27643;BME280;15053;48.618;10.024;2023-04-21T03:03:06;93797.78;;;5.73;97.80
27643;BME280;15053;48.618;10.024;2023-04-21T03:05:34;93800.09;;;5.74;98.03
27643;BME280;15053;48.618;10.024;2023-04-21T03:08:00;93802.66;;;5.74;97.60
27643;BME280;15053;48.618;10.024;2023-04-21T03:10:27;93808.38;;;5.71;97.06
27643;BME280;15053;48.618;10.024;2023-04-21T03:12:54;93811.75;;;5.67;97.67
27643;BME280;15053;48.618;10.024;2023-04-21T03:15:22;93811.75;;;5.67;97.55
27643;BME280;15053;48.618;10.024;2023-04-21T03:17:49;93800.66;;;5.66;97.73
27643;BME280;15053;48.618;10.024;2023-04-21T03:20:16;93802.22;;;5.67;98.17
27643;BME280;15053;48.618;10.024;2023-04-21T03:22:43;93783.13;;;5.58;97.82
27643;BME280;15053;48.618;10.024;2023-04-21T03:25:10;93796.56;;;5.60;97.82
27643;BME280;15053;48.618;10.024;2023-04-21T03:27:37;93795.03;;;5.59;98.23
27643;BME280;15053;48.618;10.024;2023-04-21T03:30:04;93788.31;;;5.58;98.23
27643;BME280;15053;48.618;10.024;2023-04-21T03:32:32;93790.38;;;5.56;97.82
27643;BME280;15053;48.618;10.024;2023-04-21T03:34:58;93786.53;;;5.54;98.06
27643;BME280;15053;48.618;10.024;2023-04-21T03:37:25;93786.28;;;5.50;97.61
27643;BME280;15053;48.618;10.024;2023-04-21T03:39:51;93788.13;;;5.45;98.08
27643;BME280;15053;48.618;10.024;2023-04-21T03:42:18;93784.78;;;5.39;97.71
27643;BME280;15053;48.618;10.024;2023-04-21T03:44:45;93798.75;;;5.33;97.58
27643;BME280;15053;48.618;10.024;2023-04-21T03:47:11;93805.00;;;5.22;96.36
27643;BME280;15053;48.618;10.024;2023-04-21T03:49:38;93799.88;;;5.12;97.50
27643;BME280;15053;48.618;10.024;2023-04-21T03:52:04;93796.28;;;5.08;96.74
27643;BME280;15053;48.618;10.024;2023-04-21T03:54:31;93805.06;;;5.07;96.93
27643;BME280;15053;48.618;10.024;2023-04-21T03:56:57;93803.53;;;5.01;96.47
27643;BME280;15053;48.618;10.024;2023-04-21T03:59:24;93820.56;;;4.92;96.37
27643;BME280;15053;48.618;10.024;2023-04-21T04:01:50;93817.00;;;4.83;95.98
27643;BME280;15053;48.618;10.024;2023-04-21T04:04:17;93819.56;;;4.83;96.39
27643;BME280;15053;48.618;10.024;2023-04-21T04:06:44;93825.50;;;4.83;97.02
27643;BME280;15053;48.618;10.024;2023-04-21T04:09:10;93819.06;;;4.81;97.21
27643;BME280;15053;48.618;10.024;2023-04-21T04:11:37;93826.81;;;4.81;96.91
27643;BME280;15053;48.618;10.024;2023-04-21T04:14:03;93833.78;;;4.80;97.04
27643;BME280;15053;48.618;10.024;2023-04-21T04:16:29;93838.94;;;4.80;97.30
27643;BME280;15053;48.618;10.024;2023-04-21T04:18:56;93834.28;;;4.82;98.05
27643;BME280;15053;48.618;10.024;2023-04-21T04:21:22;93828.84;;;4.84;97.75
27643;BME280;15053;48.618;10.024;2023-04-21T04:23:49;93827.31;;;4.83;98.38
27643;BME280;15053;48.618;10.024;2023-04-21T04:26:17;93820.59;;;4.82;97.53
27643;BME280;15053;48.618;10.024;2023-04-21T04:28:44;93812.38;;;4.74;97.49
27643;BME280;15053;48.618;10.024;2023-04-21T04:31:11;93819.59;;;4.67;97.68
27643;BME280;15053;48.618;10.024;2023-04-21T04:33:42;93817.53;;;4.59;97.67
27643;BME280;15053;48.618;10.024;2023-04-21T04:36:09;93812.41;;;4.49;97.75
27643;BME280;15053;48.618;10.024;2023-04-21T04:38:37;93831.47;;;4.53;98.47
27643;BME280;15053;48.618;10.024;2023-04-21T04:41:03;93833.28;;;4.53;98.72
27643;BME280;15053;48.618;10.024;2023-04-21T04:43:30;93843.59;;;4.53;97.84
27643;BME280;15053;48.618;10.024;2023-04-21T04:46:02;93851.06;;;4.54;98.51
27643;BME280;15053;48.618;10.024;2023-04-21T04:48:28;93848.75;;;4.53;98.66
27643;BME280;15053;48.618;10.024;2023-04-21T04:50:55;93850.56;;;4.57;98.66
27643;BME280;15053;48.618;10.024;2023-04-21T04:53:21;93846.16;;;4.63;99.29
27643;BME280;15053;48.618;10.024;2023-04-21T04:55:48;93843.84;;;4.66;99.14
27643;BME280;15053;48.618;10.024;2023-04-21T04:58:14;93845.63;;;4.71;99.66
27643;BME280;15053;48.618;10.024;2023-04-21T05:00:41;93858.81;;;4.69;99.34
27643;BME280;15053;48.618;10.024;2023-04-21T05:03:07;93876.31;;;4.67;99.41
27643;BME280;15053;48.618;10.024;2023-04-21T05:05:34;93870.38;;;4.67;98.97
27643;BME280;15053;48.618;10.024;2023-04-21T05:08:00;93874.28;;;4.69;99.43
27643;BME280;15053;48.618;10.024;2023-04-21T05:10:27;93850.53;;;4.67;99.63
27643;BME280;15053;48.618;10.024;2023-04-21T05:12:53;93858.78;;;4.85;99.26
27643;BME280;15053;48.618;10.024;2023-04-21T05:15:20;93855.16;;;4.91;99.02
27643;BME280;15053;48.618;10.024;2023-04-21T05:17:47;93856.69;;;4.97;99.96
27643;BME280;15053;48.618;10.024;2023-04-21T05:20:14;93856.38;;;5.08;100.00
27643;BME280;15053;48.618;10.024;2023-04-21T05:22:40;93849.16;;;5.20;99.47
27643;BME280;15053;48.618;10.024;2023-04-21T05:25:09;93860.97;;;5.31;99.61
27643;BME280;15053;48.618;10.024;2023-04-21T05:27:36;93871.03;;;5.38;99.32
27643;BME280;15053;48.618;10.024;2023-04-21T05:30:03;93875.13;;;5.44;99.93
27643;BME280;15053;48.618;10.024;2023-04-21T05:32:30;93868.66;;;5.47;99.31
27643;BME280;15053;48.618;10.024;2023-04-21T05:34:56;93860.91;;;5.52;99.32
27643;BME280;15053;48.618;10.024;2023-04-21T05:37:25;93871.19;;;5.62;99.60
27643;BME280;15053;48.618;10.024;2023-04-21T05:39:52;93874.00;;;5.70;99.16
27643;BME280;15053;48.618;10.024;2023-04-21T05:42:18;93878.13;;;5.76;98.94
27643;BME280;15053;48.618;10.024;2023-04-21T05:44:46;93872.41;;;5.79;99.74
27643;BME280;15053;48.618;10.024;2023-04-21T05:47:12;93883.50;;;5.90;100.00
27643;BME280;15053;48.618;10.024;2023-04-21T05:49:39;93880.06;;;6.00;99.91
27643;BME280;15053;48.618;10.024;2023-04-21T05:52:08;93888.31;;;6.07;100.00
27643;BME280;15053;48.618;10.024;2023-04-21T05:54:34;93882.06;;;6.13;99.65
27643;BME280;15053;48.618;10.024;2023-04-21T05:57:01;93894.97;;;6.18;100.00
27643;BME280;15053;48.618;10.024;2023-04-21T05:59:27;93885.63;;;6.22;99.70
27643;BME280;15053;48.618;10.024;2023-04-21T06:01:54;93885.09;;;6.25;99.47
27643;BME280;15053;48.618;10.024;2023-04-21T06:04:20;93888.72;;;6.29;99.17
27643;BME280;15053;48.618;10.024;2023-04-21T06:06:47;93885.03;;;6.35;99.33
27643;BME280;15053;48.618;10.024;2023-04-21T06:09:14;93873.16;;;6.34;98.39
27643;BME280;15053;48.618;10.024;2023-04-21T06:11:41;93878.53;;;6.37;98.04
27643;BME280;15053;48.618;10.024;2023-04-21T06:14:07;93884.00;;;6.36;99.46
27643;BME280;15053;48.618;10.024;2023-04-21T06:16:33;93883.50;;;6.34;98.96
27643;BME280;15053;48.618;10.024;2023-04-21T06:19:00;93869.50;;;6.35;98.95
27643;BME280;15053;48.618;10.024;2023-04-21T06:21:27;93867.69;;;6.35;98.48
27643;BME280;15053;48.618;10.024;2023-04-21T06:23:53;93863.81;;;6.38;98.54
27643;BME280;15053;48.618;10.024;2023-04-21T06:26:20;93856.00;;;6.43;98.47
27643;BME280;15053;48.618;10.024;2023-04-21T06:28:46;93858.78;;;6.51;98.46
27643;BME280;15053;48.618;10.024;2023-04-21T06:31:13;93854.09;;;6.59;99.03
27643;BME280;15053;48.618;10.024;2023-04-21T06:33:41;93862.00;;;6.72;98.74
27643;BME280;15053;48.618;10.024;2023-04-21T06:36:07;93855.22;;;6.76;98.73
27643;BME280;15053;48.618;10.024;2023-04-21T06:38:34;93850.50;;;6.83;99.00
27643;BME280;15053;48.618;10.024;2023-04-21T06:41:00;93849.19;;;6.86;97.59
27643;BME280;15053;48.618;10.024;2023-04-21T06:43:27;93845.78;;;6.90;97.96
27643;BME280;15053;48.618;10.024;2023-04-21T06:45:54;93835.09;;;6.97;98.30
27643;BME280;15053;48.618;10.024;2023-04-21T06:48:20;93831.91;;;7.05;98.52
27643;BME280;15053;48.618;10.024;2023-04-21T06:50:47;93837.28;;;7.13;98.27
27643;BME280;15053;48.618;10.024;2023-04-21T06:53:13;93838.19;;;7.23;98.48
27643;BME280;15053;48.618;10.024;2023-04-21T06:55:40;93833.00;;;7.23;98.28
27643;BME280;15053;48.618;10.024;2023-04-21T06:58:07;93832.75;;;7.24;98.01
27643;BME280;15053;48.618;10.024;2023-04-21T07:00:33;93821.06;;;7.27;97.78
27643;BME280;15053;48.618;10.024;2023-04-21T07:03:00;93816.13;;;7.30;97.21
27643;BME280;15053;48.618;10.024;2023-04-21T07:05:27;93814.28;;;7.31;97.13
27643;BME280;15053;48.618;10.024;2023-04-21T07:07:54;93810.16;;;7.30;96.93
27643;BME280;15053;48.618;10.024;2023-04-21T07:10:25;93807.41;;;7.21;97.18
27643;BME280;15053;48.618;10.024;2023-04-21T07:12:52;93823.50;;;7.18;97.02
27643;BME280;15053;48.618;10.024;2023-04-21T07:15:19;93818.13;;;7.09;96.81
27643;BME280;15053;48.618;10.024;2023-04-21T07:17:46;93827.72;;;7.09;97.05
27643;BME280;15053;48.618;10.024;2023-04-21T07:20:12;93827.69;;;7.14;97.47
27643;BME280;15053;48.618;10.024;2023-04-21T07:22:39;93826.31;;;7.22;97.69
27643;BME280;15053;48.618;10.024;2023-04-21T07:25:06;93834.50;;;7.29;96.84
27643;BME280;15053;48.618;10.024;2023-04-21T07:27:33;93833.88;;;7.37;96.61
27643;BME280;15053;48.618;10.024;2023-04-21T07:30:03;93830.91;;;7.48;97.36
27643;BME280;15053;48.618;10.024;2023-04-21T07:32:29;93825.34;;;7.60;97.29
27643;BME280;15053;48.618;10.024;2023-04-21T07:34:56;93819.66;;;7.58;96.82
27643;BME280;15053;48.618;10.024;2023-04-21T07:37:24;93829.06;;;7.72;97.07
27643;BME280;15053;48.618;10.024;2023-04-21T07:39:50;93827.16;;;7.78;96.55
27643;BME280;15053;48.618;10.024;2023-04-21T07:42:17;93836.72;;;7.83;96.90
27643;BME280;15053;48.618;10.024;2023-04-21T07:44:43;93833.28;;;7.87;97.14
27643;BME280;15053;48.618;10.024;2023-04-21T07:47:10;93829.84;;;7.92;96.79
27643;BME280;15053;48.618;10.024;2023-04-21T07:49:36;93837.91;;;7.90;97.08
27643;BME280;15053;48.618;10.024;2023-04-21T07:52:03;93835.09;;;7.87;96.33
27643;BME280;15053;48.618;10.024;2023-04-21T07:54:29;93826.28;;;7.88;96.47
27643;BME280;15053;48.618;10.024;2023-04-21T07:56:57;93827.53;;;7.90;96.56
27643;BME280;15053;48.618;10.024;2023-04-21T07:59:23;93825.44;;;7.92;97.07
27643;BME280;15053;48.618;10.024;2023-04-21T08:01:50;93826.97;;;7.93;96.48
27643;BME280;15053;48.618;10.024;2023-04-21T08:04:17;93823.88;;;7.91;96.53
27643;BME280;15053;48.618;10.024;2023-04-21T08:06:44;93817.66;;;7.92;96.93
27643;BME280;15053;48.618;10.024;2023-04-21T08:09:11;93813.16;;;7.98;96.94
27643;BME280;15053;48.618;10.024;2023-04-21T08:11:37;93816.66;;;8.07;96.58
27643;BME280;15053;48.618;10.024;2023-04-21T08:14:03;93808.25;;;8.15;96.57
27643;BME280;15053;48.618;10.024;2023-04-21T08:16:30;93819.53;;;8.24;96.69
27643;BME280;15053;48.618;10.024;2023-04-21T08:18:56;93826.13;;;8.35;96.52
27643;BME280;15053;48.618;10.024;2023-04-21T08:21:23;93824.63;;;8.48;96.80
27643;BME280;15053;48.618;10.024;2023-04-21T08:23:49;93824.47;;;8.58;96.77
27643;BME280;15053;48.618;10.024;2023-04-21T08:26:16;93827.88;;;8.72;96.64
27643;BME280;15053;48.618;10.024;2023-04-21T08:28:46;93833.47;;;8.79;95.96
27643;BME280;15053;48.618;10.024;2023-04-21T08:31:16;93832.16;;;8.81;95.92
27643;BME280;15053;48.618;10.024;2023-04-21T08:33:42;93834.25;;;8.93;95.90
27643;BME280;15053;48.618;10.024;2023-04-21T08:36:23;93834.28;;;9.07;95.41
27643;BME280;15053;48.618;10.024;2023-04-21T08:38:55;93842.19;;;9.15;95.28
27643;BME280;15053;48.618;10.024;2023-04-21T08:41:23;93836.63;;;9.35;95.28
27643;BME280;15053;48.618;10.024;2023-04-21T08:43:50;93824.28;;;9.55;94.42
27643;BME280;15053;48.618;10.024;2023-04-21T08:46:17;93825.84;;;9.56;93.71
27643;BME280;15053;48.618;10.024;2023-04-21T08:48:45;93828.25;;;9.38;93.13
27643;BME280;15053;48.618;10.024;2023-04-21T08:51:20;93829.78;;;9.39;93.58
27643;BME280;15053;48.618;10.024;2023-04-21T08:53:46;93838.63;;;9.52;93.09
27643;BME280;15053;48.618;10.024;2023-04-21T08:56:13;93828.91;;;9.58;92.94
27643;BME280;15053;48.618;10.024;2023-04-21T08:58:40;93836.81;;;9.66;92.92
27643;BME280;15053;48.618;10.024;2023-04-21T09:01:07;93826.22;;;9.63;92.59
27643;BME280;15053;48.618;10.024;2023-04-21T09:03:33;93830.34;;;9.64;92.40
27643;BME280;15053;48.618;10.024;2023-04-21T09:06:05;93838.16;;;9.64;92.68
27643;BME280;15053;48.618;10.024;2023-04-21T09:08:36;93825.81;;;9.69;92.46
27643;BME280;15053;48.618;10.024;2023-04-21T09:11:03;93835.97;;;9.93;92.29
27643;BME280;15053;48.618;10.024;2023-04-21T09:13:34;93826.72;;;10.00;91.78
27643;BME280;15053;48.618;10.024;2023-04-21T09:16:03;93824.19;;;10.09;91.71
27643;BME280;15053;48.618;10.024;2023-04-21T09:18:33;93827.09;;;10.21;91.88
27643;BME280;15053;48.618;10.024;2023-04-21T09:21:13;93830.56;;;10.39;91.82
27643;BME280;15053;48.618;10.024;2023-04-21T09:23:41;93837.16;;;10.58;92.04
27643;BME280;15053;48.618;10.024;2023-04-21T09:26:09;93826.06;;;10.75;91.63
27643;BME280;15053;48.618;10.024;2023-04-21T09:28:36;93826.72;;;10.81;90.83
27643;BME280;15053;48.618;10.024;2023-04-21T09:31:02;93833.59;;;10.77;90.51
27643;BME280;15053;48.618;10.024;2023-04-21T09:33:32;93828.09;;;10.78;89.89
27643;BME280;15053;48.618;10.024;2023-04-21T09:36:24;93832.38;;;10.83;89.69
27643;BME280;15053;48.618;10.024;2023-04-21T09:38:59;93831.38;;;10.92;89.76
27643;BME280;15053;48.618;10.024;2023-04-21T09:41:32;93836.66;;;11.01;89.52
27643;BME280;15053;48.618;10.024;2023-04-21T09:43:59;93831.00;;;11.07;89.43
27643;BME280;15053;48.618;10.024;2023-04-21T09:46:33;93823.97;;;11.16;88.93
27643;BME280;15053;48.618;10.024;2023-04-21T09:49:00;93822.34;;;11.29;88.31
27643;BME280;15053;48.618;10.024;2023-04-21T09:51:28;93823.78;;;11.44;88.12
27643;BME280;15053;48.618;10.024;2023-04-21T09:54:16;93809.25;;;11.60;87.92
27643;BME280;15053;48.618;10.024;2023-04-21T09:56:57;93812.38;;;11.79;87.63
27643;BME280;15053;48.618;10.024;2023-04-21T09:59:27;93803.53;;;11.97;87.13
27643;BME280;15053;48.618;10.024;2023-04-21T10:01:56;93808.00;;;12.14;86.20
27643;BME280;15053;48.618;10.024;2023-04-21T10:04:24;93817.34;;;12.15;85.67
27643;BME280;15053;48.618;10.024;2023-04-21T10:06:52;93817.94;;;12.12;84.59
27643;BME280;15053;48.618;10.024;2023-04-21T10:09:21;93815.50;;;12.24;83.67
27643;BME280;15053;48.618;10.024;2023-04-21T10:11:48;93815.81;;;12.48;83.73
27643;BME280;15053;48.618;10.024;2023-04-21T10:14:15;93806.25;;;12.69;83.10
27643;BME280;15053;48.618;10.024;2023-04-21T10:16:42;93806.53;;;12.85;82.69
27643;BME280;15053;48.618;10.024;2023-04-21T10:19:25;93801.59;;;12.83;81.50
27643;BME280;15053;48.618;10.024;2023-04-21T10:21:55;93810.22;;;12.92;80.45
27643;BME280;15053;48.618;10.024;2023-04-21T10:24:28;93815.63;;;12.79;80.78
27643;BME280;15053;48.618;10.024;2023-04-21T10:26:58;93808.03;;;12.94;81.12
27643;BME280;15053;48.618;10.024;2023-04-21T10:29:28;93805.34;;;13.29;80.85
27643;BME280;15053;48.618;10.024;2023-04-21T10:32:09;93800.22;;;13.41;79.29
27643;BME280;15053;48.618;10.024;2023-04-21T10:34:37;93803.53;;;13.58;78.82
27643;BME280;15053;48.618;10.024;2023-04-21T10:39:32;93810.13;;;13.85;77.83
27643;BME280;15053;48.618;10.024;2023-04-21T10:44:59;93811.00;;;13.98;76.50
27643;BME280;15053;48.618;10.024;2023-04-21T10:47:47;93804.84;;;13.94;75.84
27643;BME280;15053;48.618;10.024;2023-04-21T10:55:20;93807.34;;;13.90;76.08
27643;BME280;15053;48.618;10.024;2023-04-21T10:57:48;93798.03;;;14.01;75.41
27643;BME280;15053;48.618;10.024;2023-04-21T11:00:17;93795.69;;;14.08;75.44
27643;BME280;15053;48.618;10.024;2023-04-21T11:02:55;93794.66;;;14.22;74.75
27643;BME280;15053;48.618;10.024;2023-04-21T11:05:27;93803.63;;;14.41;74.84
27643;BME280;15053;48.618;10.024;2023-04-21T11:08:06;93792.50;;;14.44;74.95
27643;BME280;15053;48.618;10.024;2023-04-21T11:11:03;93791.66;;;14.52;74.70
27643;BME280;15053;48.618;10.024;2023-04-21T11:13:29;93794.22;;;14.73;74.38
27643;BME280;15053;48.618;10.024;2023-04-21T11:16:01;93790.66;;;14.90;74.14
27643;BME280;15053;48.618;10.024;2023-04-21T11:18:46;93784.16;;;15.08;73.24
27643;BME280;15053;48.618;10.024;2023-04-21T11:21:17;93786.00;;;15.19;72.10
27643;BME280;15053;48.618;10.024;2023-04-21T11:23:56;93779.59;;;15.29;71.91
27643;BME280;15053;48.618;10.024;2023-04-21T11:26:30;93784.09;;;15.53;71.34
27643;BME280;15053;48.618;10.024;2023-04-21T11:29:02;93783.22;;;15.73;70.48
27643;BME280;15053;48.618;10.024;2023-04-21T11:31:29;93778.81;;;15.89;70.63
27643;BME280;15053;48.618;10.024;2023-04-21T11:33:58;93771.06;;;15.92;70.26
27643;BME280;15053;48.618;10.024;2023-04-21T11:36:25;93785.16;;;16.00;69.97
27643;BME280;15053;48.618;10.024;2023-04-21T11:38:52;93788.09;;;16.11;70.29
27643;BME280;15053;48.618;10.024;2023-04-21T11:41:22;93790.44;;;16.28;69.87
27643;BME280;15053;48.618;10.024;2023-04-21T11:43:50;93787.41;;;16.53;69.42
27643;BME280;15053;48.618;10.024;2023-04-21T11:48:44;93773.94;;;16.83;67.74
27643;BME280;15053;48.618;10.024;2023-04-21T11:51:15;93780.84;;;17.03;67.44
27643;BME280;15053;48.618;10.024;2023-04-21T11:53:41;93778.47;;;17.29;67.06
27643;BME280;15053;48.618;10.024;2023-04-21T11:56:08;93772.09;;;17.46;66.45
27643;BME280;15053;48.618;10.024;2023-04-21T11:58:37;93776.97;;;17.59;65.18
27643;BME280;15053;48.618;10.024;2023-04-21T12:01:07;93780.00;;;17.61;63.70
27643;BME280;15053;48.618;10.024;2023-04-21T12:03:34;93773.13;;;17.41;63.11
27643;BME280;15053;48.618;10.024;2023-04-21T12:06:01;93765.47;;;17.36;64.05
27643;BME280;15053;48.618;10.024;2023-04-21T12:08:30;93776.97;;;17.59;64.07
27643;BME280;15053;48.618;10.024;2023-04-21T12:10:57;93774.22;;;17.40;63.34
27643;BME280;15053;48.618;10.024;2023-04-21T12:13:27;93764.63;;;17.32;63.31
27643;BME280;15053;48.618;10.024;2023-04-21T12:15:54;93766.25;;;17.52;63.00
27643;BME280;15053;48.618;10.024;2023-04-21T12:18:26;93770.56;;;17.76;62.67
27643;BME280;15053;48.618;10.024;2023-04-21T12:20:53;93767.88;;;17.92;62.77
27643;BME280;15053;48.618;10.024;2023-04-21T12:23:19;93777.91;;;18.02;62.54
27643;BME280;15053;48.618;10.024;2023-04-21T12:25:46;93771.41;;;18.15;61.82
27643;BME280;15053;48.618;10.024;2023-04-21T12:28:14;93766.44;;;18.29;61.46
27643;BME280;15053;48.618;10.024;2023-04-21T12:30:41;93776.25;;;18.48;61.20
27643;BME280;15053;48.618;10.024;2023-04-21T12:33:09;93771.16;;;18.58;61.14
27643;BME280;15053;48.618;10.024;2023-04-21T12:35:36;93776.63;;;18.69;60.71
27643;BME280;15053;48.618;10.024;2023-04-21T12:38:02;93773.19;;;18.88;59.93
27643;BME280;15053;48.618;10.024;2023-04-21T12:40:29;93775.00;;;19.03;59.59
27643;BME280;15053;48.618;10.024;2023-04-21T12:42:55;93774.81;;;19.15;58.68
27643;BME280;15053;48.618;10.024;2023-04-21T12:45:22;93766.66;;;19.23;57.65
27643;BME280;15053;48.618;10.024;2023-04-21T12:47:48;93773.19;;;19.29;58.05
27643;BME280;15053;48.618;10.024;2023-04-21T12:50:15;93766.59;;;19.39;57.20
27643;BME280;15053;48.618;10.024;2023-04-21T12:52:42;93768.47;;;19.38;56.57
27643;BME280;15053;48.618;10.024;2023-04-21T12:55:08;93772.53;;;19.36;56.08
27643;BME280;15053;48.618;10.024;2023-04-21T12:57:35;93767.38;;;19.43;56.28
27643;BME280;15053;48.618;10.024;2023-04-21T13:00:01;93766.31;;;19.48;56.14
27643;BME280;15053;48.618;10.024;2023-04-21T13:02:29;93763.44;;;19.56;55.09
27643;BME280;15053;48.618;10.024;2023-04-21T13:05:02;93761.94;;;19.55;54.58
27643;BME280;15053;48.618;10.024;2023-04-21T13:07:33;93768.88;;;19.40;54.94
27643;BME280;15053;48.618;10.024;2023-04-21T13:09:59;93760.31;;;19.47;55.28
27643;BME280;15053;48.618;10.024;2023-04-21T13:12:26;93758.59;;;19.58;55.29